createdAt,value
2022-08-29T19:28:36.698Z,25.00
2022-08-29T19:31:06.309Z,24.50
2022-08-29T19:33:36.581Z,24.50
2022-08-29T19:36:06.684Z,24.50
2022-08-29T19:38:38.222Z,24.60
2022-08-29T19:41:06.875Z,24.60
2022-08-29T19:43:39.448Z,24.60
2022-08-29T19:46:16.434Z,24.60
2022-08-29T19:48:44.737Z,24.60
2022-08-29T19:51:19.006Z,24.60
2022-08-29T19:53:49.907Z,24.60
2022-08-29T19:56:18.844Z,24.60
2022-08-29T19:58:49.407Z,24.60
2022-08-29T20:01:18.055Z,24.60
2022-08-29T20:03:46.306Z,24.50
2022-08-29T20:06:14.566Z,24.40
2022-08-29T20:08:45.445Z,24.40
2022-08-29T20:11:14.543Z,24.40
2022-08-29T20:13:50.099Z,24.40
2022-08-29T20:16:23.902Z,24.50
2022-08-29T20:18:52.887Z,24.40
2022-08-29T20:21:23.545Z,24.40
2022-08-29T20:23:55.923Z,24.40
2022-08-29T20:26:26.315Z,24.40
2022-08-29T20:28:54.912Z,24.40
2022-08-29T20:31:24.345Z,24.30
2022-08-29T20:33:54.368Z,24.30
2022-08-29T20:36:41.707Z,24.30
2022-08-29T20:39:11.823Z,24.30
2022-08-29T20:41:39.800Z,24.20
2022-08-29T20:44:09.817Z,24.20
2022-08-29T20:46:42.614Z,24.20
2022-08-29T20:49:12.523Z,24.20
2022-08-29T20:51:43.299Z,24.10
2022-08-29T20:54:11.601Z,24.10
2022-08-29T20:56:39.625Z,24.10
2022-08-29T20:59:08.162Z,24.10
2022-08-29T21:01:36.240Z,24.10
2022-08-29T21:04:27.331Z,24.10
2022-08-29T21:06:56.298Z,24.10
2022-08-29T21:09:25.173Z,24.10
2022-08-29T21:11:53.680Z,24.00
2022-08-29T21:14:27.201Z,24.00
2022-08-29T21:16:56.938Z,24.00
2022-08-29T21:19:29.883Z,24.00
2022-08-29T21:21:59.153Z,24.00
2022-08-29T21:24:28.849Z,24.00
2022-08-29T21:26:57.161Z,23.90
2022-08-29T21:29:25.566Z,23.90
2022-08-29T21:31:54.886Z,24.00
2022-08-29T21:34:23.288Z,24.00
2022-08-29T21:36:55.430Z,24.10
2022-08-29T21:39:28.084Z,24.10
2022-08-29T21:41:57.511Z,24.20
2022-08-29T21:44:25.538Z,24.10
2022-08-29T21:46:56.634Z,24.10
2022-08-29T21:49:24.694Z,24.20
2022-08-29T21:51:54.418Z,24.20
2022-08-29T21:54:22.525Z,24.20
2022-08-29T21:56:50.530Z,24.20
2022-08-29T21:59:19.275Z,24.30
2022-08-29T22:01:54.627Z,24.20
2022-08-29T22:04:28.289Z,24.20
2022-08-29T22:06:59.702Z,24.20
2022-08-29T22:09:28.910Z,24.10
2022-08-29T22:11:57.351Z,24.10
2022-08-29T22:14:46.709Z,24.00
2022-08-29T22:17:14.319Z,23.90
2022-08-29T22:19:42.393Z,23.70
2022-08-29T22:22:12.398Z,23.60
2022-08-29T22:24:40.664Z,23.60
2022-08-29T22:27:08.760Z,23.50
2022-08-29T22:29:37.351Z,23.40
2022-08-29T22:32:06.085Z,23.20
2022-08-29T22:34:34.107Z,23.10
2022-08-29T22:37:04.209Z,23.00
2022-08-29T22:39:33.482Z,22.90
2022-08-29T22:42:01.453Z,22.70
2022-08-29T22:44:59.553Z,22.60
2022-08-29T22:47:17.855Z,22.50
2022-08-29T22:49:46.369Z,22.40
2022-08-29T22:52:14.464Z,22.30
2022-08-29T22:54:43.841Z,22.20
2022-08-29T22:57:14.741Z,22.10
2022-08-29T22:59:48.585Z,22.00
2022-08-29T23:02:17.838Z,21.90
2022-08-29T23:04:46.177Z,21.70
2022-08-29T23:07:14.126Z,21.70
2022-08-29T23:09:44.409Z,21.60
2022-08-29T23:12:14.147Z,21.50
2022-08-29T23:14:46.601Z,21.50
2022-08-29T23:17:17.869Z,21.50
2022-08-29T23:19:46.423Z,21.50
2022-08-29T23:22:18.230Z,21.40
2022-08-29T23:24:58.292Z,21.50
